Time;durP1;ratioP1;P1;durP2;ratioP2;P2;SDS_P1;SDS_P2;PMS_P1;PMS_P2;Temp;Humidity;BMP_temperature;BMP_pressure;BME280_temperature;BME280_humidity;BME280_pressure;Samples;Min_cycle;Max_cycle;Signal;HPM_P1;HPM_P2
2023/08/04 00:00:55;;;;;;;1.40;1.30;;;;;;;;;;5014756;28;20179;-73
2023/08/04 00:03:20;;;;;;;3.87;1.27;;;;;;;;;;5025488;28;20196;-73
2023/08/04 00:05:45;;;;;;;3.10;1.50;;;;;;;;;;5021686;28;20232;-73
2023/08/04 00:08:10;;;;;;;1.73;1.30;;;;;;;;;;5022979;28;20266;-73
2023/08/04 00:10:36;;;;;;;1.47;1.30;;;;;;;;;;5017557;28;20271;-73
2023/08/04 00:13:02;;;;;;;2.40;1.33;;;;;;;;;;5015509;28;20211;-73
2023/08/04 00:15:28;;;;;;;2.07;1.30;;;;;;;;;;5017599;28;20271;-73
2023/08/04 00:17:54;;;;;;;2.47;1.37;;;;;;;;;;5019515;28;20213;-73
2023/08/04 00:20:19;;;;;;;3.07;1.47;;;;;;;;;;5020621;28;20183;-72
2023/08/04 00:22:44;;;;;;;3.03;1.30;;;;;;;;;;5018453;28;20180;-73
2023/08/04 00:25:10;;;;;;;1.80;1.20;;;;;;;;;;5013500;28;20188;-73
2023/08/04 00:27:35;;;;;;;4.20;1.40;;;;;;;;;;5019491;28;20231;-73
2023/08/04 00:30:01;;;;;;;2.07;1.40;;;;;;;;;;5016916;28;20185;-73
2023/08/04 00:32:27;;;;;;;2.93;1.33;;;;;;;;;;5022032;28;20180;-73
2023/08/04 00:34:52;;;;;;;2.07;1.40;;;;;;;;;;5022785;28;20195;-73
2023/08/04 00:37:17;;;;;;;1.70;1.27;;;;;;;;;;5020909;28;20209;-73
2023/08/04 00:39:42;;;;;;;2.03;1.20;;;;;;;;;;5019370;28;20179;-73
2023/08/04 00:42:08;;;;;;;1.47;1.23;;;;;;;;;;5013617;28;20274;-73
2023/08/04 00:44:36;;;;;;;2.87;1.50;;;;;;;;;;5015841;28;20177;-73
2023/08/04 00:47:02;;;;;;;2.17;1.20;;;;;;;;;;5022343;28;20188;-73
2023/08/04 00:49:27;;;;;;;3.80;1.17;;;;;;;;;;5017590;28;20181;-73
2023/08/04 00:51:52;;;;;;;2.53;1.23;;;;;;;;;;5019329;28;20252;-73
2023/08/04 00:54:18;;;;;;;1.63;0.97;;;;;;;;;;5027467;28;20299;-73
2023/08/04 00:56:43;;;;;;;2.90;1.40;;;;;;;;;;5015562;28;20215;-73
2023/08/04 00:59:08;;;;;;;1.50;1.10;;;;;;;;;;5019462;28;20187;-73
2023/08/04 01:01:34;;;;;;;2.17;1.27;;;;;;;;;;5025837;28;20186;-73
2023/08/04 01:03:59;;;;;;;1.50;1.40;;;;;;;;;;5016591;28;20238;-73
2023/08/04 01:06:36;;;;;;;2.33;1.40;;;;;;;;;;5027548;28;20179;-73
2023/08/04 01:09:06;;;;;;;2.10;1.70;;;;;;;;;;5035678;28;20183;-73
2023/08/04 01:11:33;;;;;;;2.67;1.50;;;;;;;;;;5013706;28;20211;-73
2023/08/04 01:13:58;;;;;;;2.30;1.23;;;;;;;;;;5026597;28;20190;-73
2023/08/04 01:16:24;;;;;;;2.90;1.40;;;;;;;;;;5013925;28;20183;-73
2023/08/04 01:18:49;;;;;;;2.10;1.17;;;;;;;;;;5019261;28;20186;-73
2023/08/04 01:21:14;;;;;;;2.07;1.30;;;;;;;;;;5021685;28;20185;-73
2023/08/04 01:23:39;;;;;;;2.47;1.30;;;;;;;;;;5017250;28;20181;-73
2023/08/04 01:26:06;;;;;;;1.97;1.40;;;;;;;;;;5015194;28;20239;-73
2023/08/04 01:28:32;;;;;;;3.17;1.47;;;;;;;;;;5023616;28;20279;-73
2023/08/04 01:30:59;;;;;;;1.30;1.10;;;;;;;;;;5019011;28;20270;-73
2023/08/04 01:33:24;;;;;;;2.83;1.10;;;;;;;;;;5025429;28;20191;-73
2023/08/04 01:35:52;;;;;;;4.83;1.40;;;;;;;;;;5016345;28;20180;-73
2023/08/04 01:38:17;;;;;;;1.40;1.27;;;;;;;;;;5018773;28;20209;-73
2023/08/04 01:40:42;;;;;;;1.67;1.13;;;;;;;;;;5018581;28;20172;-73
2023/08/04 01:43:08;;;;;;;3.03;1.43;;;;;;;;;;5016964;28;20187;-73
2023/08/04 01:45:34;;;;;;;2.80;1.30;;;;;;;;;;5014757;28;20199;-73
2023/08/04 01:47:59;;;;;;;1.97;1.20;;;;;;;;;;5018267;28;20224;-73
2023/08/04 01:50:24;;;;;;;3.23;1.50;;;;;;;;;;5013884;28;20213;-73
2023/08/04 01:52:49;;;;;;;2.67;1.37;;;;;;;;;;5016755;28;20207;-73
2023/08/04 01:55:15;;;;;;;2.40;1.83;;;;;;;;;;5015387;28;20202;-73
2023/08/04 01:57:40;;;;;;;2.87;1.50;;;;;;;;;;5019835;28;20214;-73
2023/08/04 02:00:06;;;;;;;1.53;1.43;;;;;;;;;;5038940;28;20190;-73
2023/08/04 02:02:31;;;;;;;1.27;1.17;;;;;;;;;;5024030;28;20221;-73
2023/08/04 02:04:57;;;;;;;3.53;2.20;;;;;;;;;;5012471;28;20266;-73
2023/08/04 02:07:22;;;;;;;2.00;1.30;;;;;;;;;;5016890;28;20172;-73
2023/08/04 02:09:47;;;;;;;1.90;1.20;;;;;;;;;;5018379;28;20179;-73
2023/08/04 02:12:12;;;;;;;3.10;2.40;;;;;;;;;;5016924;28;20175;-73
2023/08/04 02:14:38;;;;;;;2.57;1.27;;;;;;;;;;5017603;28;20404;-73
2023/08/04 02:17:03;;;;;;;2.87;1.20;;;;;;;;;;5017223;28;20194;-73
2023/08/04 02:19:28;;;;;;;1.77;1.23;;;;;;;;;;5012450;28;20206;-73
2023/08/04 02:21:53;;;;;;;3.77;1.50;;;;;;;;;;5010684;28;20270;-73
2023/08/04 02:24:18;;;;;;;1.80;1.40;;;;;;;;;;5020927;28;20186;-73
2023/08/04 02:26:44;;;;;;;2.63;1.43;;;;;;;;;;5015744;28;20189;-73
2023/08/04 02:29:10;;;;;;;1.80;1.43;;;;;;;;;;5022533;28;20179;-73
2023/08/04 02:31:35;;;;;;;3.57;1.10;;;;;;;;;;5012441;28;20190;-73
2023/08/04 02:34:00;;;;;;;1.23;1.13;;;;;;;;;;5016917;28;20340;-73
2023/08/04 02:36:25;;;;;;;1.73;1.63;;;;;;;;;;5013603;28;20187;-73
2023/08/04 02:38:51;;;;;;;3.30;1.60;;;;;;;;;;5016277;28;20168;-73
2023/08/04 02:41:16;;;;;;;4.90;1.53;;;;;;;;;;5011257;28;20182;-73
2023/08/04 02:43:41;;;;;;;4.23;1.70;;;;;;;;;;5018251;28;20179;-73
2023/08/04 02:46:08;;;;;;;1.77;1.30;;;;;;;;;;5022434;28;20245;-73
2023/08/04 02:48:33;;;;;;;2.57;1.40;;;;;;;;;;5032890;28;20176;-73
2023/08/04 02:51:04;;;;;;;2.07;1.10;;;;;;;;;;5015066;28;20187;-73
2023/08/04 02:53:30;;;;;;;3.33;1.60;;;;;;;;;;5016557;28;20202;-73
2023/08/04 02:55:56;;;;;;;3.43;1.30;;;;;;;;;;5015628;28;20257;-73
2023/08/04 02:58:25;;;;;;;1.43;1.27;;;;;;;;;;5019037;28;20219;-73
2023/08/04 03:00:50;;;;;;;3.33;1.47;;;;;;;;;;5019897;28;20276;-73
2023/08/04 03:03:19;;;;;;;6.17;1.40;;;;;;;;;;5012730;28;20242;-73
2023/08/04 03:05:44;;;;;;;0.93;0.90;;;;;;;;;;5020294;28;20226;-73
2023/08/04 03:08:09;;;;;;;1.97;1.50;;;;;;;;;;5012744;28;20345;-73
2023/08/04 03:10:38;;;;;;;3.00;1.27;;;;;;;;;;5014084;28;20205;-73
2023/08/04 03:13:03;;;;;;;1.27;1.10;;;;;;;;;;5017223;28;20186;-73
2023/08/04 03:15:28;;;;;;;1.77;1.43;;;;;;;;;;5017561;28;20190;-73
2023/08/04 03:17:53;;;;;;;2.43;1.30;;;;;;;;;;5021155;28;20432;-73
2023/08/04 03:20:19;;;;;;;2.60;1.37;;;;;;;;;;5019575;28;20189;-73
2023/08/04 03:22:44;;;;;;;2.30;1.20;;;;;;;;;;5021084;28;20269;-73
2023/08/04 03:25:09;;;;;;;2.00;1.30;;;;;;;;;;5015195;28;20179;-73
2023/08/04 03:27:35;;;;;;;2.20;1.10;;;;;;;;;;5015538;28;20246;-73
2023/08/04 03:30:00;;;;;;;1.10;1.00;;;;;;;;;;5018448;28;20214;-72
2023/08/04 03:32:25;;;;;;;2.97;1.33;;;;;;;;;;5021180;28;20269;-73
2023/08/04 03:34:50;;;;;;;1.87;1.10;;;;;;;;;;5015951;28;20200;-73
2023/08/04 03:37:16;;;;;;;2.37;1.27;;;;;;;;;;5035203;28;20204;-73
2023/08/04 03:39:41;;;;;;;2.47;0.97;;;;;;;;;;5024238;28;20175;-73
2023/08/04 03:42:06;;;;;;;1.37;1.27;;;;;;;;;;5016356;28;20178;-73
2023/08/04 03:44:31;;;;;;;1.60;1.10;;;;;;;;;;5024481;28;20185;-73
2023/08/04 03:46:56;;;;;;;2.20;1.33;;;;;;;;;;5017584;28;20182;-73
2023/08/04 03:49:22;;;;;;;1.30;1.03;;;;;;;;;;5027063;28;20247;-73
2023/08/04 03:51:47;;;;;;;1.17;1.00;;;;;;;;;;5015115;28;20206;-73
2023/08/04 03:54:12;;;;;;;3.20;1.07;;;;;;;;;;5017771;28;20202;-73
2023/08/04 03:56:37;;;;;;;2.57;1.17;;;;;;;;;;5017469;28;20175;-73
2023/08/04 03:59:02;;;;;;;1.93;1.27;;;;;;;;;;5019282;28;20296;-73
2023/08/04 04:01:28;;;;;;;1.67;1.10;;;;;;;;;;5018336;28;20180;-73
2023/08/04 04:03:53;;;;;;;1.53;1.10;;;;;;;;;;5013421;28;20218;-73
2023/08/04 04:06:18;;;;;;;1.60;1.20;;;;;;;;;;5027777;28;20193;-73
2023/08/04 04:08:45;;;;;;;3.20;1.27;;;;;;;;;;5017837;28;20171;-73
2023/08/04 04:11:10;;;;;;;1.70;1.30;;;;;;;;;;5015751;28;20186;-73
2023/08/04 04:13:35;;;;;;;1.20;1.10;;;;;;;;;;5026237;28;20179;-73
2023/08/04 04:16:00;;;;;;;1.77;1.17;;;;;;;;;;5017691;28;20277;-73
2023/08/04 04:18:25;;;;;;;1.97;1.10;;;;;;;;;;5025766;28;20205;-73
2023/08/04 04:20:51;;;;;;;4.07;1.20;;;;;;;;;;5028840;28;20269;-73
2023/08/04 04:23:16;;;;;;;1.63;1.27;;;;;;;;;;5019616;28;20179;-73
2023/08/04 04:25:41;;;;;;;2.50;1.27;;;;;;;;;;5015498;28;20209;-73
2023/08/04 04:28:06;;;;;;;1.20;1.10;;;;;;;;;;5014134;28;20189;-73
2023/08/04 04:30:31;;;;;;;1.47;1.37;;;;;;;;;;5016081;28;20193;-73
2023/08/04 04:32:57;;;;;;;2.83;1.50;;;;;;;;;;5024813;28;20187;-73
2023/08/04 04:35:22;;;;;;;1.33;1.20;;;;;;;;;;5020459;28;20176;-73
2023/08/04 04:37:47;;;;;;;2.07;1.20;;;;;;;;;;5021540;28;20210;-73
2023/08/04 04:40:12;;;;;;;3.17;1.40;;;;;;;;;;5015731;28;20175;-73
2023/08/04 04:42:38;;;;;;;1.57;0.90;;;;;;;;;;5020453;28;20175;-73
2023/08/04 04:45:03;;;;;;;1.07;0.97;;;;;;;;;;5026500;28;20186;-73
2023/08/04 04:47:28;;;;;;;1.53;1.20;;;;;;;;;;5017295;28;20241;-73
2023/08/04 04:49:53;;;;;;;2.23;1.40;;;;;;;;;;5028655;28;20180;-73
2023/08/04 04:52:29;;;;;;;1.60;1.13;;;;;;;;;;5015561;28;20179;-73
2023/08/04 04:54:55;;;;;;;1.30;1.20;;;;;;;;;;5024272;28;20275;-73
2023/08/04 04:57:21;;;;;;;3.80;1.40;;;;;;;;;;5021994;28;20198;-73
2023/08/04 04:59:46;;;;;;;1.77;0.97;;;;;;;;;;5021712;28;20269;-73
2023/08/04 05:02:11;;;;;;;0.80;0.80;;;;;;;;;;5020301;28;20216;-73
2023/08/04 05:04:36;;;;;;;1.00;1.00;;;;;;;;;;5016797;28;20230;-73
2023/08/04 05:07:01;;;;;;;2.27;1.50;;;;;;;;;;5021118;28;20183;-73
2023/08/04 05:09:27;;;;;;;1.87;0.90;;;;;;;;;;5020455;28;20236;-73
2023/08/04 05:11:52;;;;;;;2.23;1.27;;;;;;;;;;5022739;28;20183;-73
2023/08/04 05:14:17;;;;;;;2.50;1.30;;;;;;;;;;5030061;28;20186;-73
2023/08/04 05:16:44;;;;;;;2.37;1.43;;;;;;;;;;5018003;28;20191;-73
2023/08/04 05:19:10;;;;;;;1.00;1.00;;;;;;;;;;5019132;28;20187;-73
2023/08/04 05:21:35;;;;;;;1.23;1.00;;;;;;;;;;5017762;28;20175;-73
2023/08/04 05:24:00;;;;;;;1.00;1.00;;;;;;;;;;5016551;28;20175;-73
2023/08/04 05:26:25;;;;;;;4.13;1.40;;;;;;;;;;5019313;28;20175;-73
2023/08/04 05:28:51;;;;;;;1.27;0.80;;;;;;;;;;5016332;28;20180;-73
2023/08/04 05:31:16;;;;;;;2.83;1.10;;;;;;;;;;5016771;28;20180;-73
2023/08/04 05:33:41;;;;;;;1.60;1.00;;;;;;;;;;5026137;28;20324;-73
2023/08/04 05:36:06;;;;;;;1.47;1.00;;;;;;;;;;5013695;28;20181;-73
2023/08/04 05:38:32;;;;;;;1.23;1.13;;;;;;;;;;5011556;28;20202;-72
2023/08/04 05:40:59;;;;;;;2.30;1.30;;;;;;;;;;5017135;28;20181;-73
2023/08/04 05:43:24;;;;;;;2.03;1.27;;;;;;;;;;5018170;28;20191;-73
2023/08/04 05:45:50;;;;;;;2.77;2.00;;;;;;;;;;5025063;28;20171;-73
2023/08/04 05:48:15;;;;;;;1.77;1.50;;;;;;;;;;5024252;28;20183;-73
2023/08/04 05:50:41;;;;;;;1.90;1.27;;;;;;;;;;5019097;28;20239;-73
2023/08/04 05:53:06;;;;;;;1.83;1.30;;;;;;;;;;5021627;28;20207;-73
2023/08/04 05:55:31;;;;;;;1.27;1.17;;;;;;;;;;5025857;28;20190;-73
2023/08/04 05:57:56;;;;;;;2.53;1.50;;;;;;;;;;5018359;28;20254;-73
2023/08/04 06:00:22;;;;;;;6.77;1.40;;;;;;;;;;5014483;28;20249;-73
2023/08/04 06:02:47;;;;;;;1.40;1.27;;;;;;;;;;5013656;28;20183;-73
2023/08/04 06:05:13;;;;;;;1.63;1.03;;;;;;;;;;5015530;28;20310;-73
2023/08/04 06:07:39;;;;;;;3.23;1.20;;;;;;;;;;5026192;28;20260;-72
2023/08/04 06:10:04;;;;;;;0.97;0.90;;;;;;;;;;5017383;28;20187;-73
2023/08/04 06:12:29;;;;;;;2.00;1.20;;;;;;;;;;5016669;28;20191;-73
2023/08/04 06:14:55;;;;;;;1.63;1.20;;;;;;;;;;5022787;28;20243;-73
2023/08/04 06:17:20;;;;;;;2.07;1.37;;;;;;;;;;5026240;28;20197;-73
2023/08/04 06:19:45;;;;;;;2.33;1.30;;;;;;;;;;5012991;28;20182;-73
2023/08/04 06:22:13;;;;;;;1.57;1.30;;;;;;;;;;5018181;28;20184;-72
2023/08/04 06:24:38;;;;;;;35.77;5.83;;;;;;;;;;5014756;28;20228;-73
2023/08/04 06:27:04;;;;;;;4.53;1.30;;;;;;;;;;5018337;28;20207;-73
2023/08/04 06:29:29;;;;;;;6.13;2.43;;;;;;;;;;5012023;28;20173;-73
2023/08/04 06:31:55;;;;;;;1.80;0.90;;;;;;;;;;5013981;28;20169;-73
2023/08/04 06:34:20;;;;;;;2.57;1.33;;;;;;;;;;5026290;28;20186;-72
2023/08/04 06:36:45;;;;;;;2.30;0.97;;;;;;;;;;5022679;28;20233;-73
2023/08/04 06:39:10;;;;;;;2.13;0.90;;;;;;;;;;5012941;28;20181;-73
2023/08/04 06:41:36;;;;;;;1.60;1.00;;;;;;;;;;5020326;28;20186;-73
2023/08/04 06:44:01;;;;;;;3.43;1.30;;;;;;;;;;5020497;28;20176;-73
2023/08/04 06:46:26;;;;;;;2.70;1.83;;;;;;;;;;5012526;28;20172;-73
2023/08/04 06:48:51;;;;;;;1.33;1.23;;;;;;;;;;5019790;28;20186;-73
2023/08/04 06:51:16;;;;;;;1.30;1.20;;;;;;;;;;5017295;28;20181;-73
2023/08/04 06:53:42;;;;;;;4.00;1.00;;;;;;;;;;5017720;28;20266;-73
2023/08/04 06:56:07;;;;;;;2.50;1.20;;;;;;;;;;5020651;28;20179;-73
2023/08/04 06:58:32;;;;;;;3.93;1.70;;;;;;;;;;5025362;28;20192;-73
2023/08/04 07:00:57;;;;;;;2.13;1.10;;;;;;;;;;5014572;28;20175;-73
2023/08/04 07:03:22;;;;;;;2.93;1.70;;;;;;;;;;5016470;28;20266;-73
2023/08/04 07:05:48;;;;;;;1.33;1.10;;;;;;;;;;5019672;28;20233;-73
2023/08/04 07:08:13;;;;;;;2.90;1.30;;;;;;;;;;5019733;28;20182;-73
2023/08/04 07:10:39;;;;;;;2.37;1.70;;;;;;;;;;5022725;28;20193;-72
2023/08/04 07:13:04;;;;;;;3.03;1.30;;;;;;;;;;5021114;28;20210;-73
2023/08/04 07:15:30;;;;;;;2.90;1.50;;;;;;;;;;5019196;28;20267;-73
2023/08/04 07:17:56;;;;;;;2.07;1.37;;;;;;;;;;5018269;28;20211;-73
2023/08/04 07:20:21;;;;;;;2.77;1.50;;;;;;;;;;5024369;28;20181;-73
2023/08/04 07:22:46;;;;;;;2.63;1.40;;;;;;;;;;5023772;28;20181;-73
2023/08/04 07:25:12;;;;;;;3.50;1.17;;;;;;;;;;5014863;28;20175;-73
2023/08/04 07:27:37;;;;;;;1.23;1.10;;;;;;;;;;5014125;28;20181;-73
2023/08/04 07:30:02;;;;;;;1.53;1.30;;;;;;;;;;5011701;28;20184;-73
2023/08/04 07:32:27;;;;;;;3.17;1.77;;;;;;;;;;5014560;28;20182;-73
2023/08/04 07:34:53;;;;;;;1.27;0.90;;;;;;;;;;5017065;28;20184;-73
2023/08/04 07:37:18;;;;;;;3.60;1.60;;;;;;;;;;5016111;28;20282;-73
2023/08/04 07:39:43;;;;;;;1.43;1.00;;;;;;;;;;5012929;28;20179;-73
2023/08/04 07:42:08;;;;;;;1.10;1.00;;;;;;;;;;5019751;28;20208;-73
2023/08/04 07:44:34;;;;;;;1.43;1.10;;;;;;;;;;5020587;28;20274;-73
2023/08/04 07:46:59;;;;;;;3.33;1.70;;;;;;;;;;5014019;28;20234;-73
2023/08/04 07:49:25;;;;;;;3.87;1.20;;;;;;;;;;5018704;28;20186;-73
2023/08/04 07:51:50;;;;;;;1.03;1.00;;;;;;;;;;5014692;28;20240;-74
2023/08/04 07:54:15;;;;;;;1.93;1.30;;;;;;;;;;5020380;28;20203;-73
2023/08/04 07:56:40;;;;;;;2.33;1.00;;;;;;;;;;5020288;28;20180;-73
2023/08/04 07:59:05;;;;;;;1.73;1.50;;;;;;;;;;5021120;28;20183;-84
2023/08/04 08:01:30;;;;;;;2.27;1.20;;;;;;;;;;5023287;28;20173;-80
2023/08/04 08:03:56;;;;;;;2.13;1.20;;;;;;;;;;5015546;28;20270;-82
2023/08/04 08:06:21;;;;;;;1.53;1.10;;;;;;;;;;5023134;28;20176;-83
2023/08/04 08:08:46;;;;;;;1.13;0.80;;;;;;;;;;5017416;28;20183;-83
2023/08/04 08:11:12;;;;;;;4.50;1.63;;;;;;;;;;5031961;28;20273;-82
2023/08/04 08:13:38;;;;;;;1.40;0.97;;;;;;;;;;5029950;28;20192;-83
2023/08/04 08:16:10;;;;;;;3.43;1.20;;;;;;;;;;5016589;28;20179;-82
2023/08/04 08:18:35;;;;;;;1.07;0.97;;;;;;;;;;5021897;28;20282;-83
2023/08/04 08:21:03;;;;;;;1.00;1.00;;;;;;;;;;5020115;28;20260;-82
2023/08/04 08:23:28;;;;;;;1.63;1.50;;;;;;;;;;5025985;28;20182;-82
2023/08/04 08:25:53;;;;;;;5.23;1.73;;;;;;;;;;5027999;28;20172;-80
2023/08/04 08:28:18;;;;;;;2.60;1.80;;;;;;;;;;5024156;28;20258;-78
2023/08/04 08:30:43;;;;;;;5.17;1.97;;;;;;;;;;5024129;28;20183;-80
2023/08/04 08:33:09;;;;;;;4.20;1.97;;;;;;;;;;5016643;28;20188;-81
2023/08/04 08:35:34;;;;;;;2.70;1.67;;;;;;;;;;5024206;28;20184;-81
2023/08/04 08:37:59;;;;;;;3.13;1.57;;;;;;;;;;5016326;28;20212;-81
2023/08/04 08:40:25;;;;;;;1.80;1.30;;;;;;;;;;5016267;28;20240;-81
2023/08/04 08:42:51;;;;;;;3.40;1.70;;;;;;;;;;5014091;28;20174;-81
2023/08/04 08:45:16;;;;;;;2.63;1.50;;;;;;;;;;5014829;28;20187;-81
2023/08/04 08:47:44;;;;;;;5.07;2.43;;;;;;;;;;5018868;28;20186;-80
2023/08/04 08:50:10;;;;;;;1.53;1.40;;;;;;;;;;5029098;28;20177;-81
2023/08/04 08:52:37;;;;;;;1.70;1.60;;;;;;;;;;5017590;28;20176;-81
2023/08/04 08:55:02;;;;;;;2.87;1.53;;;;;;;;;;5017282;28;20172;-80
2023/08/04 08:57:28;;;;;;;2.27;1.50;;;;;;;;;;5021165;28;20200;-80
2023/08/04 08:59:54;;;;;;;1.93;1.60;;;;;;;;;;5024923;28;20274;-81
2023/08/04 09:02:20;;;;;;;1.67;1.57;;;;;;;;;;5026016;28;20176;-81
2023/08/04 09:04:45;;;;;;;3.70;1.80;;;;;;;;;;5017074;28;20238;-81
2023/08/04 09:07:10;;;;;;;2.73;1.80;;;;;;;;;;5015987;28;20211;-82
2023/08/04 09:09:35;;;;;;;3.60;1.80;;;;;;;;;;5015920;28;20262;-82
2023/08/04 09:12:01;;;;;;;2.83;2.00;;;;;;;;;;5015638;28;20214;-82
2023/08/04 09:14:26;;;;;;;1.60;1.50;;;;;;;;;;5025962;28;20184;-82
2023/08/04 09:16:51;;;;;;;1.90;1.80;;;;;;;;;;5020717;28;20179;-81
2023/08/04 09:19:16;;;;;;;1.43;1.23;;;;;;;;;;5019845;28;20241;-81
2023/08/04 09:21:42;;;;;;;1.70;1.60;;;;;;;;;;5017440;28;20234;-81
2023/08/04 09:24:10;;;;;;;1.40;1.30;;;;;;;;;;5027136;28;20199;-81
2023/08/04 09:26:45;;;;;;;2.43;1.20;;;;;;;;;;5015250;28;20279;-81
2023/08/04 09:29:10;;;;;;;1.27;1.10;;;;;;;;;;5014463;28;20187;-81
2023/08/04 09:31:36;;;;;;;2.97;1.67;;;;;;;;;;5018862;28;20206;-81
2023/08/04 09:34:05;;;;;;;3.03;1.20;;;;;;;;;;5015558;28;20186;-81
2023/08/04 09:36:31;;;;;;;1.20;0.93;;;;;;;;;;5017322;28;20233;-81
2023/08/04 09:39:04;;;;;;;1.60;1.40;;;;;;;;;;5021151;28;20209;-79
2023/08/04 09:41:31;;;;;;;2.07;1.50;;;;;;;;;;5016723;28;20237;-81
2023/08/04 09:43:56;;;;;;;2.30;1.60;;;;;;;;;;5019798;28;20226;-80
2023/08/04 09:46:22;;;;;;;2.03;1.50;;;;;;;;;;5019626;28;20258;-81
2023/08/04 09:48:47;;;;;;;2.50;2.30;;;;;;;;;;5017752;28;20246;-80
2023/08/04 09:51:14;;;;;;;1.93;1.57;;;;;;;;;;5022339;28;20183;-80
2023/08/04 09:53:43;;;;;;;2.30;2.10;;;;;;;;;;5014749;28;20202;-80
2023/08/04 09:56:09;;;;;;;2.80;1.60;;;;;;;;;;5016034;28;20182;-81
2023/08/04 09:58:34;;;;;;;1.40;1.10;;;;;;;;;;5018227;28;20195;-80
2023/08/04 10:01:01;;;;;;;1.87;1.27;;;;;;;;;;5017391;28;20198;-81
2023/08/04 10:03:27;;;;;;;1.67;1.57;;;;;;;;;;5016955;28;20186;-80
2023/08/04 10:05:53;;;;;;;1.60;1.50;;;;;;;;;;5018142;28;20230;-80
2023/08/04 10:08:18;;;;;;;1.50;1.20;;;;;;;;;;5012167;28;20222;-80
2023/08/04 10:10:44;;;;;;;1.07;0.90;;;;;;;;;;5020949;28;20190;-80
2023/08/04 10:13:09;;;;;;;1.63;1.20;;;;;;;;;;5020579;28;20190;-80
2023/08/04 10:15:34;;;;;;;1.20;1.10;;;;;;;;;;5021718;28;20189;-80
2023/08/04 10:18:00;;;;;;;1.70;1.10;;;;;;;;;;5017705;28;20195;-80
2023/08/04 10:20:27;;;;;;;1.40;1.30;;;;;;;;;;5024645;28;20163;-79
2023/08/04 10:22:52;;;;;;;2.77;1.93;;;;;;;;;;5012067;28;20175;-79
2023/08/04 10:25:17;;;;;;;1.30;1.20;;;;;;;;;;5012523;28;20268;-79
2023/08/04 10:27:47;;;;;;;1.10;1.00;;;;;;;;;;5015523;28;20184;-79
2023/08/04 10:30:12;;;;;;;1.90;1.13;;;;;;;;;;5019335;28;20275;-79
2023/08/04 10:32:38;;;;;;;1.33;1.23;;;;;;;;;;5017829;28;20258;-79
2023/08/04 10:35:04;;;;;;;1.07;0.97;;;;;;;;;;5023202;28;20214;-79
2023/08/04 10:37:29;;;;;;;1.40;1.00;;;;;;;;;;5018416;28;20187;-80
2023/08/04 10:39:58;;;;;;;1.37;1.27;;;;;;;;;;5020662;28;20210;-80
2023/08/04 10:42:26;;;;;;;3.30;1.50;;;;;;;;;;5016139;28;20172;-79
2023/08/04 10:44:52;;;;;;;2.10;1.10;;;;;;;;;;5021318;28;20179;-80
2023/08/04 10:47:36;;;;;;;1.47;1.10;;;;;;;;;;5014246;28;20183;-79
2023/08/04 10:50:03;;;;;;;1.50;1.30;;;;;;;;;;5012711;28;20199;-79
2023/08/04 10:52:28;;;;;;;1.37;1.27;;;;;;;;;;5015637;28;20188;-80
2023/08/04 10:54:54;;;;;;;1.50;1.40;;;;;;;;;;5016443;28;20250;-79
2023/08/04 10:57:21;;;;;;;2.50;1.20;;;;;;;;;;5017962;28;20195;-79
2023/08/04 10:59:46;;;;;;;2.73;1.50;;;;;;;;;;5018336;28;20210;-80
2023/08/04 11:02:15;;;;;;;0.97;0.93;;;;;;;;;;5018968;28;20260;-80
2023/08/04 11:04:40;;;;;;;1.30;1.20;;;;;;;;;;5014749;28;20229;-80
2023/08/04 11:07:06;;;;;;;1.40;1.30;;;;;;;;;;5019690;28;20185;-80
2023/08/04 11:09:34;;;;;;;2.10;1.40;;;;;;;;;;5026693;28;20183;-79
2023/08/04 11:12:00;;;;;;;2.47;1.60;;;;;;;;;;5012167;28;20192;-78
2023/08/04 11:14:25;;;;;;;2.20;1.40;;;;;;;;;;5013523;28;20183;-78
2023/08/04 11:16:50;;;;;;;2.90;1.43;;;;;;;;;;5011517;28;20281;-79
2023/08/04 11:19:19;;;;;;;1.27;1.17;;;;;;;;;;5018760;28;20199;-77
2023/08/04 11:21:44;;;;;;;0.97;0.97;;;;;;;;;;5014961;28;20255;-79
2023/08/04 11:24:09;;;;;;;1.20;1.10;;;;;;;;;;5018521;28;20265;-79
2023/08/04 11:26:35;;;;;;;1.60;1.50;;;;;;;;;;5022036;28;20259;-79
2023/08/04 11:29:00;;;;;;;3.03;1.50;;;;;;;;;;5011762;28;20237;-78
2023/08/04 11:31:26;;;;;;;1.40;1.30;;;;;;;;;;5025386;28;20190;-79
2023/08/04 11:33:52;;;;;;;1.40;1.30;;;;;;;;;;5021657;28;20181;-83
2023/08/04 11:36:17;;;;;;;0.93;0.93;;;;;;;;;;5014810;28;20194;-77
2023/08/04 11:38:43;;;;;;;1.10;1.10;;;;;;;;;;5020333;28;20214;-77
2023/08/04 11:41:10;;;;;;;1.10;1.07;;;;;;;;;;5017535;28;20179;-77
2023/08/04 11:43:36;;;;;;;1.63;1.43;;;;;;;;;;5016309;28;20211;-77
2023/08/04 11:46:06;;;;;;;1.83;1.37;;;;;;;;;;5016758;28;20231;-78
2023/08/04 11:48:32;;;;;;;1.50;1.23;;;;;;;;;;5024011;28;20189;-77
2023/08/04 11:50:58;;;;;;;1.33;1.23;;;;;;;;;;5029024;28;20175;-77
2023/08/04 11:53:23;;;;;;;3.40;1.90;;;;;;;;;;5019160;28;20244;-77
2023/08/04 11:55:56;;;;;;;2.30;1.70;;;;;;;;;;5020765;28;20187;-77
2023/08/04 11:58:31;;;;;;;1.57;1.47;;;;;;;;;;5014472;28;20222;-77
2023/08/04 12:00:57;;;;;;;1.70;1.60;;;;;;;;;;5021878;28;20274;-77
2023/08/04 12:03:22;;;;;;;3.10;1.60;;;;;;;;;;5022588;28;20278;-77
2023/08/04 12:05:47;;;;;;;1.90;1.73;;;;;;;;;;5022496;28;20225;-77
2023/08/04 12:08:13;;;;;;;1.97;1.87;;;;;;;;;;5017208;28;20190;-77
2023/08/04 12:10:39;;;;;;;1.87;1.73;;;;;;;;;;5019777;28;20180;-77
2023/08/04 12:13:04;;;;;;;3.47;1.70;;;;;;;;;;5017215;28;20187;-76
2023/08/04 12:15:29;;;;;;;2.00;1.90;;;;;;;;;;5045197;28;20171;-77
2023/08/04 12:17:54;;;;;;;2.13;2.00;;;;;;;;;;5028785;28;20201;-77
2023/08/04 12:20:20;;;;;;;2.70;1.90;;;;;;;;;;5020580;28;20177;-78
2023/08/04 12:22:45;;;;;;;2.30;2.13;;;;;;;;;;5025941;28;20182;-77
2023/08/04 12:25:11;;;;;;;2.17;1.90;;;;;;;;;;5026336;28;20255;-77
2023/08/04 12:27:36;;;;;;;2.17;2.07;;;;;;;;;;5022286;28;20185;-77
2023/08/04 12:30:02;;;;;;;4.50;2.50;;;;;;;;;;5015111;28;20184;-77
2023/08/04 12:32:27;;;;;;;2.90;2.53;;;;;;;;;;5025623;28;20186;-77
2023/08/04 12:34:53;;;;;;;2.40;2.20;;;;;;;;;;5017563;28;20236;-77
2023/08/04 12:37:18;;;;;;;2.37;2.17;;;;;;;;;;5020417;28;20243;-78
2023/08/04 12:39:46;;;;;;;2.07;1.90;;;;;;;;;;5014826;28;20224;-77
2023/08/04 12:42:11;;;;;;;2.73;2.50;;;;;;;;;;5028463;28;20191;-77
2023/08/04 12:44:37;;;;;;;2.00;1.80;;;;;;;;;;5015585;28;20176;-77
2023/08/04 12:47:02;;;;;;;2.20;1.87;;;;;;;;;;5023701;28;20177;-78
2023/08/04 12:49:28;;;;;;;2.20;2.00;;;;;;;;;;5027320;28;20189;-78
2023/08/04 12:51:53;;;;;;;2.40;2.20;;;;;;;;;;5034768;28;20172;-77
2023/08/04 12:54:18;;;;;;;2.50;1.80;;;;;;;;;;5025699;28;20289;-77
2023/08/04 12:56:43;;;;;;;2.97;2.07;;;;;;;;;;5016387;28;20192;-77
2023/08/04 12:59:08;;;;;;;2.13;1.97;;;;;;;;;;5014755;28;20212;-78
2023/08/04 13:01:34;;;;;;;3.10;2.90;;;;;;;;;;5017259;28;20177;-78
2023/08/04 13:03:59;;;;;;;2.20;2.10;;;;;;;;;;5018132;28;20192;-78
2023/08/04 13:06:24;;;;;;;2.97;2.43;;;;;;;;;;5015845;28;20279;-77
2023/08/04 13:08:49;;;;;;;2.57;2.37;;;;;;;;;;5016505;28;20204;-77
2023/08/04 13:11:15;;;;;;;3.17;2.20;;;;;;;;;;5021040;28;20229;-78
2023/08/04 13:13:40;;;;;;;2.83;2.60;;;;;;;;;;5021211;28;20176;-77
2023/08/04 13:16:05;;;;;;;3.37;3.07;;;;;;;;;;5014197;28;20184;-76
2023/08/04 13:18:30;;;;;;;2.87;2.57;;;;;;;;;;5017186;28;20204;-77
2023/08/04 13:20:55;;;;;;;2.33;2.13;;;;;;;;;;5017740;28;20185;-77
2023/08/04 13:23:20;;;;;;;2.47;2.27;;;;;;;;;;5023386;28;20257;-77
2023/08/04 13:25:46;;;;;;;2.20;2.00;;;;;;;;;;5023897;28;20176;-77
2023/08/04 13:28:11;;;;;;;2.07;1.87;;;;;;;;;;5017553;28;20191;-77
2023/08/04 13:30:36;;;;;;;3.23;2.20;;;;;;;;;;5015414;28;20230;-77
2023/08/04 13:33:02;;;;;;;2.53;2.33;;;;;;;;;;5017367;28;20176;-77
2023/08/04 13:35:27;;;;;;;2.70;2.50;;;;;;;;;;5026973;28;20181;-77
2023/08/04 13:37:53;;;;;;;2.33;2.13;;;;;;;;;;5024320;28;20204;-77
2023/08/04 13:40:18;;;;;;;3.83;2.83;;;;;;;;;;5019999;28;20192;-77
2023/08/04 13:42:43;;;;;;;3.30;3.00;;;;;;;;;;5016359;28;20184;-77
2023/08/04 13:45:09;;;;;;;2.40;2.20;;;;;;;;;;5013241;28;20183;-77
2023/08/04 13:47:34;;;;;;;2.80;2.60;;;;;;;;;;5021542;28;20176;-76
2023/08/04 13:50:00;;;;;;;2.43;2.23;;;;;;;;;;5029579;28;20213;-77
2023/08/04 13:52:25;;;;;;;2.50;2.23;;;;;;;;;;5013040;28;20189;-77
2023/08/04 13:54:50;;;;;;;2.97;2.73;;;;;;;;;;5020658;28;20212;-77
2023/08/04 13:57:16;;;;;;;3.10;2.40;;;;;;;;;;5015685;28;20235;-76
2023/08/04 13:59:41;;;;;;;2.50;2.20;;;;;;;;;;5022168;28;20174;-77
2023/08/04 14:02:07;;;;;;;2.50;2.30;;;;;;;;;;5022019;28;20181;-77
2023/08/04 14:04:32;;;;;;;3.37;2.90;;;;;;;;;;5021917;28;20226;-77
2023/08/04 14:06:58;;;;;;;3.40;2.40;;;;;;;;;;5016709;28;20172;-77
2023/08/04 14:09:23;;;;;;;2.63;2.43;;;;;;;;;;5017042;28;20182;-77
2023/08/04 14:11:48;;;;;;;2.57;2.37;;;;;;;;;;5019049;28;20200;-77
2023/08/04 14:14:13;;;;;;;5.07;3.20;;;;;;;;;;5025259;28;20176;-76
2023/08/04 14:16:38;;;;;;;3.60;3.30;;;;;;;;;;5022540;28;20171;-77
2023/08/04 14:19:04;;;;;;;3.07;2.87;;;;;;;;;;5014268;28;20272;-78
2023/08/04 14:21:29;;;;;;;3.03;2.80;;;;;;;;;;5014546;28;20175;-78
2023/08/04 14:23:54;;;;;;;3.60;3.27;;;;;;;;;;5023397;28;20180;-77
2023/08/04 14:26:22;;;;;;;3.47;3.17;;;;;;;;;;5022380;28;20176;-77
2023/08/04 14:28:48;;;;;;;3.20;2.90;;;;;;;;;;5015674;28;20266;-78
2023/08/04 14:31:13;;;;;;;3.70;2.60;;;;;;;;;;5020290;28;20256;-78
2023/08/04 14:33:39;;;;;;;3.27;3.00;;;;;;;;;;5023954;28;20176;-78